sensor_id;sensor_type;location;lat;lon;timestamp;P1;durP1;ratioP1;P2;durP2;ratioP2
12484;SDS011;6307;46.804;11.580;2022-09-14T00:01:16;2.57;;;2.13;;
12484;SDS011;6307;46.804;11.580;2022-09-14T00:03:46;5.43;;;2.43;;
12484;SDS011;6307;46.804;11.580;2022-09-14T00:06:17;4.10;;;2.60;;
12484;SDS011;6307;46.804;11.580;2022-09-14T00:08:43;2.67;;;2.20;;
12484;SDS011;6307;46.804;11.580;2022-09-14T00:11:11;3.20;;;2.00;;
12484;SDS011;6307;46.804;11.580;2022-09-14T00:13:40;5.77;;;2.40;;
12484;SDS011;6307;46.804;11.580;2022-09-14T00:16:11;5.67;;;2.57;;
12484;SDS011;6307;46.804;11.580;2022-09-14T00:18:41;2.63;;;2.17;;
12484;SDS011;6307;46.804;11.580;2022-09-14T00:21:08;3.30;;;2.00;;
12484;SDS011;6307;46.804;11.580;2022-09-14T00:23:36;1.90;;;1.80;;
12484;SDS011;6307;46.804;11.580;2022-09-14T00:26:10;3.83;;;2.27;;
12484;SDS011;6307;46.804;11.580;2022-09-14T00:28:41;2.17;;;1.90;;
12484;SDS011;6307;46.804;11.580;2022-09-14T00:31:12;2.60;;;2.17;;
12484;SDS011;6307;46.804;11.580;2022-09-14T00:33:40;3.93;;;2.40;;
12484;SDS011;6307;46.804;11.580;2022-09-14T00:38:37;2.87;;;2.10;;
12484;SDS011;6307;46.804;11.580;2022-09-14T00:41:06;3.13;;;2.10;;
12484;SDS011;6307;46.804;11.580;2022-09-14T00:46:29;8.70;;;2.57;;
12484;SDS011;6307;46.804;11.580;2022-09-14T00:49:05;4.23;;;2.50;;
12484;SDS011;6307;46.804;11.580;2022-09-14T00:51:38;8.23;;;2.60;;
12484;SDS011;6307;46.804;11.580;2022-09-14T00:54:15;7.40;;;2.60;;
12484;SDS011;6307;46.804;11.580;2022-09-14T00:56:41;4.70;;;2.20;;
12484;SDS011;6307;46.804;11.580;2022-09-14T00:59:11;6.67;;;2.40;;
12484;SDS011;6307;46.804;11.580;2022-09-14T01:01:44;2.80;;;2.17;;
12484;SDS011;6307;46.804;11.580;2022-09-14T01:04:11;5.23;;;2.50;;
12484;SDS011;6307;46.804;11.580;2022-09-14T01:06:42;5.30;;;2.50;;
12484;SDS011;6307;46.804;11.580;2022-09-14T01:12:48;4.17;;;2.27;;
12484;SDS011;6307;46.804;11.580;2022-09-14T01:18:35;4.70;;;2.17;;
12484;SDS011;6307;46.804;11.580;2022-09-14T01:28:57;3.90;;;2.40;;
12484;SDS011;6307;46.804;11.580;2022-09-14T01:31:41;6.83;;;2.50;;
12484;SDS011;6307;46.804;11.580;2022-09-14T01:34:44;3.40;;;2.00;;
12484;SDS011;6307;46.804;11.580;2022-09-14T01:37:24;7.53;;;2.57;;
12484;SDS011;6307;46.804;11.580;2022-09-14T01:40:17;2.20;;;2.00;;
12484;SDS011;6307;46.804;11.580;2022-09-14T01:43:05;4.33;;;2.40;;
12484;SDS011;6307;46.804;11.580;2022-09-14T01:45:51;2.40;;;2.20;;
12484;SDS011;6307;46.804;11.580;2022-09-14T01:48:30;3.40;;;2.03;;
12484;SDS011;6307;46.804;11.580;2022-09-14T01:51:03;4.13;;;2.30;;
12484;SDS011;6307;46.804;11.580;2022-09-14T01:53:38;4.60;;;2.47;;
12484;SDS011;6307;46.804;11.580;2022-09-14T01:56:17;8.57;;;2.60;;
12484;SDS011;6307;46.804;11.580;2022-09-14T01:58:59;7.07;;;2.37;;
12484;SDS011;6307;46.804;11.580;2022-09-14T02:02:43;6.80;;;2.17;;
12484;SDS011;6307;46.804;11.580;2022-09-14T02:05:13;4.13;;;2.57;;
12484;SDS011;6307;46.804;11.580;2022-09-14T02:07:53;4.97;;;2.43;;
12484;SDS011;6307;46.804;11.580;2022-09-14T02:10:20;4.93;;;2.43;;
12484;SDS011;6307;46.804;11.580;2022-09-14T02:12:48;2.37;;;1.90;;
12484;SDS011;6307;46.804;11.580;2022-09-14T02:15:16;2.40;;;2.00;;
12484;SDS011;6307;46.804;11.580;2022-09-14T02:17:42;5.83;;;2.40;;
12484;SDS011;6307;46.804;11.580;2022-09-14T02:20:13;4.63;;;2.43;;
12484;SDS011;6307;46.804;11.580;2022-09-14T02:22:54;2.07;;;1.83;;
12484;SDS011;6307;46.804;11.580;2022-09-14T02:25:21;4.93;;;2.17;;
12484;SDS011;6307;46.804;11.580;2022-09-14T02:27:47;4.50;;;2.30;;
12484;SDS011;6307;46.804;11.580;2022-09-14T02:30:14;8.77;;;2.77;;
12484;SDS011;6307;46.804;11.580;2022-09-14T02:33:24;2.90;;;1.93;;
12484;SDS011;6307;46.804;11.580;2022-09-14T02:35:57;3.00;;;2.10;;
12484;SDS011;6307;46.804;11.580;2022-09-14T02:38:57;3.83;;;2.30;;
12484;SDS011;6307;46.804;11.580;2022-09-14T02:55:46;4.57;;;2.23;;
12484;SDS011;6307;46.804;11.580;2022-09-14T02:58:20;3.50;;;2.30;;
12484;SDS011;6307;46.804;11.580;2022-09-14T03:00:47;3.47;;;2.00;;
12484;SDS011;6307;46.804;11.580;2022-09-14T03:03:16;2.23;;;2.03;;
12484;SDS011;6307;46.804;11.580;2022-09-14T03:05:44;3.07;;;2.20;;
12484;SDS011;6307;46.804;11.580;2022-09-14T03:08:11;2.40;;;1.80;;
12484;SDS011;6307;46.804;11.580;2022-09-14T03:10:40;3.90;;;2.07;;
12484;SDS011;6307;46.804;11.580;2022-09-14T03:13:08;3.63;;;2.27;;
12484;SDS011;6307;46.804;11.580;2022-09-14T03:15:35;3.17;;;2.10;;
12484;SDS011;6307;46.804;11.580;2022-09-14T03:18:01;3.57;;;2.03;;
12484;SDS011;6307;46.804;11.580;2022-09-14T03:20:30;2.40;;;1.93;;
12484;SDS011;6307;46.804;11.580;2022-09-14T03:22:58;2.33;;;2.10;;
12484;SDS011;6307;46.804;11.580;2022-09-14T03:25:25;4.00;;;2.23;;
12484;SDS011;6307;46.804;11.580;2022-09-14T03:27:53;3.33;;;2.13;;
12484;SDS011;6307;46.804;11.580;2022-09-14T03:30:23;3.70;;;2.00;;
12484;SDS011;6307;46.804;11.580;2022-09-14T03:32:50;2.77;;;1.90;;
12484;SDS011;6307;46.804;11.580;2022-09-14T03:35:16;3.33;;;1.80;;
12484;SDS011;6307;46.804;11.580;2022-09-14T03:37:43;2.70;;;2.00;;
12484;SDS011;6307;46.804;11.580;2022-09-14T03:40:12;2.43;;;2.00;;
12484;SDS011;6307;46.804;11.580;2022-09-14T03:42:41;4.00;;;1.90;;
12484;SDS011;6307;46.804;11.580;2022-09-14T03:45:10;8.80;;;2.93;;
12484;SDS011;6307;46.804;11.580;2022-09-14T03:47:37;4.13;;;2.40;;
12484;SDS011;6307;46.804;11.580;2022-09-14T03:50:05;4.53;;;2.37;;
12484;SDS011;6307;46.804;11.580;2022-09-14T03:52:33;2.97;;;2.27;;
12484;SDS011;6307;46.804;11.580;2022-09-14T03:55:01;3.60;;;2.33;;
12484;SDS011;6307;46.804;11.580;2022-09-14T03:57:30;5.40;;;2.47;;
12484;SDS011;6307;46.804;11.580;2022-09-14T03:59:56;4.10;;;2.20;;
12484;SDS011;6307;46.804;11.580;2022-09-14T04:02:23;4.17;;;2.13;;
12484;SDS011;6307;46.804;11.580;2022-09-14T04:04:49;2.90;;;2.60;;
12484;SDS011;6307;46.804;11.580;2022-09-14T04:07:16;3.83;;;2.70;;
12484;SDS011;6307;46.804;11.580;2022-09-14T04:09:42;4.23;;;3.20;;
12484;SDS011;6307;46.804;11.580;2022-09-14T04:12:08;5.40;;;2.97;;
12484;SDS011;6307;46.804;11.580;2022-09-14T04:14:35;3.30;;;2.30;;
12484;SDS011;6307;46.804;11.580;2022-09-14T04:17:01;5.03;;;2.30;;
12484;SDS011;6307;46.804;11.580;2022-09-14T04:19:28;5.07;;;2.20;;
12484;SDS011;6307;46.804;11.580;2022-09-14T04:21:55;4.20;;;2.30;;
12484;SDS011;6307;46.804;11.580;2022-09-14T04:24:21;4.20;;;2.33;;
12484;SDS011;6307;46.804;11.580;2022-09-14T04:26:47;5.27;;;2.47;;
12484;SDS011;6307;46.804;11.580;2022-09-14T04:29:13;5.23;;;2.70;;
12484;SDS011;6307;46.804;11.580;2022-09-14T04:31:39;5.00;;;2.97;;
12484;SDS011;6307;46.804;11.580;2022-09-14T04:34:05;4.37;;;2.73;;
12484;SDS011;6307;46.804;11.580;2022-09-14T04:36:34;3.03;;;2.30;;
12484;SDS011;6307;46.804;11.580;2022-09-14T04:39:01;3.00;;;2.40;;
12484;SDS011;6307;46.804;11.580;2022-09-14T04:41:28;5.17;;;2.87;;
12484;SDS011;6307;46.804;11.580;2022-09-14T04:43:55;2.73;;;2.40;;
12484;SDS011;6307;46.804;11.580;2022-09-14T04:46:24;2.93;;;2.20;;
12484;SDS011;6307;46.804;11.580;2022-09-14T04:48:54;2.50;;;2.30;;
12484;SDS011;6307;46.804;11.580;2022-09-14T04:51:21;3.03;;;2.47;;
12484;SDS011;6307;46.804;11.580;2022-09-14T04:53:51;4.60;;;2.67;;
12484;SDS011;6307;46.804;11.580;2022-09-14T04:56:20;3.53;;;2.73;;
12484;SDS011;6307;46.804;11.580;2022-09-14T04:58:49;4.23;;;2.70;;
12484;SDS011;6307;46.804;11.580;2022-09-14T05:01:21;5.60;;;2.80;;
12484;SDS011;6307;46.804;11.580;2022-09-14T05:03:50;2.70;;;2.20;;
12484;SDS011;6307;46.804;11.580;2022-09-14T05:06:19;7.13;;;3.03;;
12484;SDS011;6307;46.804;11.580;2022-09-14T05:08:49;5.07;;;2.87;;
12484;SDS011;6307;46.804;11.580;2022-09-14T05:11:17;3.87;;;2.43;;
12484;SDS011;6307;46.804;11.580;2022-09-14T05:13:47;2.77;;;2.50;;
12484;SDS011;6307;46.804;11.580;2022-09-14T05:16:18;3.87;;;2.57;;
12484;SDS011;6307;46.804;11.580;2022-09-14T05:18:51;3.23;;;2.50;;
12484;SDS011;6307;46.804;11.580;2022-09-14T05:21:24;4.57;;;2.40;;
12484;SDS011;6307;46.804;11.580;2022-09-14T05:23:55;4.33;;;2.43;;
12484;SDS011;6307;46.804;11.580;2022-09-14T05:26:24;5.60;;;2.50;;
12484;SDS011;6307;46.804;11.580;2022-09-14T05:28:53;7.83;;;3.40;;
12484;SDS011;6307;46.804;11.580;2022-09-14T05:31:23;4.53;;;2.67;;
12484;SDS011;6307;46.804;11.580;2022-09-14T05:33:51;2.70;;;2.30;;
12484;SDS011;6307;46.804;11.580;2022-09-14T05:36:18;4.37;;;3.00;;
12484;SDS011;6307;46.804;11.580;2022-09-14T05:38:45;4.80;;;2.87;;
12484;SDS011;6307;46.804;11.580;2022-09-14T05:41:12;4.47;;;2.50;;
12484;SDS011;6307;46.804;11.580;2022-09-14T05:43:39;6.27;;;2.80;;
12484;SDS011;6307;46.804;11.580;2022-09-14T05:46:08;6.63;;;3.17;;
12484;SDS011;6307;46.804;11.580;2022-09-14T05:48:38;5.70;;;3.63;;
12484;SDS011;6307;46.804;11.580;2022-09-14T05:51:06;10.90;;;3.17;;
12484;SDS011;6307;46.804;11.580;2022-09-14T05:53:40;9.83;;;3.07;;
12484;SDS011;6307;46.804;11.580;2022-09-14T05:56:11;3.97;;;2.63;;
12484;SDS011;6307;46.804;11.580;2022-09-14T05:58:39;5.47;;;2.83;;
12484;SDS011;6307;46.804;11.580;2022-09-14T06:03:57;7.40;;;3.67;;
12484;SDS011;6307;46.804;11.580;2022-09-14T06:06:29;6.23;;;2.93;;
12484;SDS011;6307;46.804;11.580;2022-09-14T06:08:56;3.57;;;2.53;;
12484;SDS011;6307;46.804;11.580;2022-09-14T06:11:24;7.17;;;3.23;;
12484;SDS011;6307;46.804;11.580;2022-09-14T06:13:57;5.43;;;2.90;;
12484;SDS011;6307;46.804;11.580;2022-09-14T06:16:25;4.67;;;2.97;;
12484;SDS011;6307;46.804;11.580;2022-09-14T06:18:54;4.03;;;2.60;;
12484;SDS011;6307;46.804;11.580;2022-09-14T06:21:22;4.90;;;2.73;;
12484;SDS011;6307;46.804;11.580;2022-09-14T06:23:51;5.47;;;2.70;;
12484;SDS011;6307;46.804;11.580;2022-09-14T06:26:18;4.80;;;2.70;;
12484;SDS011;6307;46.804;11.580;2022-09-14T06:28:44;2.53;;;2.03;;
12484;SDS011;6307;46.804;11.580;2022-09-14T06:31:11;2.47;;;2.10;;
12484;SDS011;6307;46.804;11.580;2022-09-14T06:33:45;3.13;;;2.33;;
12484;SDS011;6307;46.804;11.580;2022-09-14T06:36:14;3.63;;;2.50;;
12484;SDS011;6307;46.804;11.580;2022-09-14T06:38:45;3.03;;;2.17;;
12484;SDS011;6307;46.804;11.580;2022-09-14T06:41:14;2.70;;;2.20;;
12484;SDS011;6307;46.804;11.580;2022-09-14T06:43:45;4.50;;;2.10;;
12484;SDS011;6307;46.804;11.580;2022-09-14T06:46:14;3.80;;;2.17;;
12484;SDS011;6307;46.804;11.580;2022-09-14T06:49:26;4.67;;;3.07;;
12484;SDS011;6307;46.804;11.580;2022-09-14T06:51:37;8.63;;;4.20;;
12484;SDS011;6307;46.804;11.580;2022-09-14T06:54:09;7.43;;;3.57;;
12484;SDS011;6307;46.804;11.580;2022-09-14T06:56:39;5.20;;;3.70;;
12484;SDS011;6307;46.804;11.580;2022-09-14T06:59:09;4.87;;;3.70;;
12484;SDS011;6307;46.804;11.580;2022-09-14T07:01:39;10.63;;;3.83;;
12484;SDS011;6307;46.804;11.580;2022-09-14T07:04:06;5.30;;;3.33;;
12484;SDS011;6307;46.804;11.580;2022-09-14T07:09:10;7.33;;;3.93;;
12484;SDS011;6307;46.804;11.580;2022-09-14T07:11:38;3.97;;;3.00;;
12484;SDS011;6307;46.804;11.580;2022-09-14T07:14:05;9.60;;;3.97;;
12484;SDS011;6307;46.804;11.580;2022-09-14T07:16:32;7.73;;;3.90;;
12484;SDS011;6307;46.804;11.580;2022-09-14T07:19:02;5.97;;;3.37;;
12484;SDS011;6307;46.804;11.580;2022-09-14T07:21:34;4.37;;;2.90;;
12484;SDS011;6307;46.804;11.580;2022-09-14T07:24:00;5.37;;;3.13;;
12484;SDS011;6307;46.804;11.580;2022-09-14T07:26:28;4.83;;;3.03;;
12484;SDS011;6307;46.804;11.580;2022-09-14T07:29:03;6.70;;;3.60;;
12484;SDS011;6307;46.804;11.580;2022-09-14T07:31:36;4.90;;;3.10;;
12484;SDS011;6307;46.804;11.580;2022-09-14T07:34:06;5.30;;;3.03;;
12484;SDS011;6307;46.804;11.580;2022-09-14T07:36:34;4.43;;;2.93;;
12484;SDS011;6307;46.804;11.580;2022-09-14T07:39:03;6.13;;;3.20;;
12484;SDS011;6307;46.804;11.580;2022-09-14T07:41:32;7.83;;;3.50;;
12484;SDS011;6307;46.804;11.580;2022-09-14T07:44:00;6.80;;;3.40;;
12484;SDS011;6307;46.804;11.580;2022-09-14T07:46:29;10.17;;;3.57;;
12484;SDS011;6307;46.804;11.580;2022-09-14T07:49:02;7.07;;;3.07;;
12484;SDS011;6307;46.804;11.580;2022-09-14T07:51:29;4.50;;;3.10;;
12484;SDS011;6307;46.804;11.580;2022-09-14T07:53:57;3.87;;;2.53;;
12484;SDS011;6307;46.804;11.580;2022-09-14T07:56:25;5.47;;;2.90;;
12484;SDS011;6307;46.804;11.580;2022-09-14T07:58:53;5.07;;;2.43;;
12484;SDS011;6307;46.804;11.580;2022-09-14T08:01:24;6.20;;;3.03;;
12484;SDS011;6307;46.804;11.580;2022-09-14T08:03:54;7.27;;;3.37;;
12484;SDS011;6307;46.804;11.580;2022-09-14T08:06:23;10.70;;;3.27;;
12484;SDS011;6307;46.804;11.580;2022-09-14T08:08:51;10.63;;;3.40;;
12484;SDS011;6307;46.804;11.580;2022-09-14T08:11:24;7.37;;;2.93;;
12484;SDS011;6307;46.804;11.580;2022-09-14T08:13:56;8.53;;;2.70;;
12484;SDS011;6307;46.804;11.580;2022-09-14T08:16:26;7.43;;;2.93;;
12484;SDS011;6307;46.804;11.580;2022-09-14T08:18:55;6.67;;;2.87;;
12484;SDS011;6307;46.804;11.580;2022-09-14T08:21:25;7.47;;;3.23;;
12484;SDS011;6307;46.804;11.580;2022-09-14T08:23:54;6.27;;;3.33;;
12484;SDS011;6307;46.804;11.580;2022-09-14T08:26:22;6.57;;;3.20;;
12484;SDS011;6307;46.804;11.580;2022-09-14T08:28:51;6.30;;;3.33;;
12484;SDS011;6307;46.804;11.580;2022-09-14T08:31:22;8.40;;;3.13;;
12484;SDS011;6307;46.804;11.580;2022-09-14T08:33:52;8.20;;;3.87;;
12484;SDS011;6307;46.804;11.580;2022-09-14T08:36:25;7.90;;;3.80;;
12484;SDS011;6307;46.804;11.580;2022-09-14T08:38:55;9.87;;;3.23;;
12484;SDS011;6307;46.804;11.580;2022-09-14T08:44:27;4.50;;;3.10;;
12484;SDS011;6307;46.804;11.580;2022-09-14T08:47:11;6.83;;;3.13;;
12484;SDS011;6307;46.804;11.580;2022-09-14T08:52:46;7.03;;;3.67;;
12484;SDS011;6307;46.804;11.580;2022-09-14T08:58:12;8.30;;;3.37;;
12484;SDS011;6307;46.804;11.580;2022-09-14T09:01:11;8.43;;;3.90;;
12484;SDS011;6307;46.804;11.580;2022-09-14T09:04:09;6.47;;;3.77;;
12484;SDS011;6307;46.804;11.580;2022-09-14T09:06:52;7.70;;;4.30;;
12484;SDS011;6307;46.804;11.580;2022-09-14T09:09:49;6.47;;;3.70;;
12484;SDS011;6307;46.804;11.580;2022-09-14T09:12:18;8.43;;;4.33;;
12484;SDS011;6307;46.804;11.580;2022-09-14T09:17:20;6.63;;;4.23;;
12484;SDS011;6307;46.804;11.580;2022-09-14T09:22:40;10.83;;;5.13;;
12484;SDS011;6307;46.804;11.580;2022-09-14T09:25:16;7.87;;;4.60;;
12484;SDS011;6307;46.804;11.580;2022-09-14T09:27:48;9.73;;;5.60;;
12484;SDS011;6307;46.804;11.580;2022-09-14T09:30:18;6.27;;;5.10;;
12484;SDS011;6307;46.804;11.580;2022-09-14T09:32:44;10.70;;;5.63;;
12484;SDS011;6307;46.804;11.580;2022-09-14T09:35:14;6.57;;;5.50;;
12484;SDS011;6307;46.804;11.580;2022-09-14T09:37:46;11.87;;;6.90;;
12484;SDS011;6307;46.804;11.580;2022-09-14T09:40:16;11.33;;;6.13;;
12484;SDS011;6307;46.804;11.580;2022-09-14T09:43:03;8.63;;;6.00;;
12484;SDS011;6307;46.804;11.580;2022-09-14T09:45:59;8.83;;;6.50;;
12484;SDS011;6307;46.804;11.580;2022-09-14T09:48:30;8.40;;;5.60;;
12484;SDS011;6307;46.804;11.580;2022-09-14T09:51:15;13.53;;;5.77;;
12484;SDS011;6307;46.804;11.580;2022-09-14T09:56:37;9.00;;;5.53;;
12484;SDS011;6307;46.804;11.580;2022-09-14T09:59:37;10.37;;;5.53;;
12484;SDS011;6307;46.804;11.580;2022-09-14T10:07:30;9.83;;;6.37;;
12484;SDS011;6307;46.804;11.580;2022-09-14T10:12:29;9.80;;;6.77;;
12484;SDS011;6307;46.804;11.580;2022-09-14T10:17:54;10.97;;;6.70;;
12484;SDS011;6307;46.804;11.580;2022-09-14T10:20:38;10.37;;;7.67;;
12484;SDS011;6307;46.804;11.580;2022-09-14T10:25:44;13.47;;;6.87;;
12484;SDS011;6307;46.804;11.580;2022-09-14T10:28:20;10.47;;;7.50;;
12484;SDS011;6307;46.804;11.580;2022-09-14T10:31:00;15.17;;;6.37;;
12484;SDS011;6307;46.804;11.580;2022-09-14T10:33:42;10.90;;;6.90;;
12484;SDS011;6307;46.804;11.580;2022-09-14T10:39:09;11.40;;;6.77;;
12484;SDS011;6307;46.804;11.580;2022-09-14T11:00:16;11.40;;;6.90;;
12484;SDS011;6307;46.804;11.580;2022-09-14T11:14:47;10.67;;;6.83;;
12484;SDS011;6307;46.804;11.580;2022-09-14T11:25:47;9.43;;;5.57;;
12484;SDS011;6307;46.804;11.580;2022-09-14T11:28:22;10.63;;;6.40;;
12484;SDS011;6307;46.804;11.580;2022-09-14T11:31:17;13.27;;;6.73;;
12484;SDS011;6307;46.804;11.580;2022-09-14T11:33:58;13.03;;;6.63;;
12484;SDS011;6307;46.804;11.580;2022-09-14T11:36:49;11.27;;;5.90;;
12484;SDS011;6307;46.804;11.580;2022-09-14T11:39:30;15.53;;;7.03;;
12484;SDS011;6307;46.804;11.580;2022-09-14T11:42:19;12.63;;;6.27;;
12484;SDS011;6307;46.804;11.580;2022-09-14T11:44:58;8.87;;;4.30;;
12484;SDS011;6307;46.804;11.580;2022-09-14T11:47:42;7.20;;;5.50;;
12484;SDS011;6307;46.804;11.580;2022-09-14T11:50:25;8.53;;;4.63;;
12484;SDS011;6307;46.804;11.580;2022-09-14T11:53:02;10.70;;;4.20;;
12484;SDS011;6307;46.804;11.580;2022-09-14T11:55:42;9.77;;;5.57;;
12484;SDS011;6307;46.804;11.580;2022-09-14T11:58:25;10.93;;;5.87;;
12484;SDS011;6307;46.804;11.580;2022-09-14T12:11:44;9.70;;;5.67;;
12484;SDS011;6307;46.804;11.580;2022-09-14T12:20:18;12.53;;;6.70;;
12484;SDS011;6307;46.804;11.580;2022-09-14T12:36:09;10.70;;;6.07;;
12484;SDS011;6307;46.804;11.580;2022-09-14T13:05:01;4.47;;;3.67;;
12484;SDS011;6307;46.804;11.580;2022-09-14T13:07:33;7.57;;;4.73;;
12484;SDS011;6307;46.804;11.580;2022-09-14T13:10:03;12.27;;;5.20;;
12484;SDS011;6307;46.804;11.580;2022-09-14T13:15:16;7.47;;;4.27;;
12484;SDS011;6307;46.804;11.580;2022-09-14T13:20:48;5.93;;;3.77;;
12484;SDS011;6307;46.804;11.580;2022-09-14T13:23:29;9.63;;;4.90;;
12484;SDS011;6307;46.804;11.580;2022-09-14T13:26:07;3.50;;;2.90;;
12484;SDS011;6307;46.804;11.580;2022-09-14T13:28:41;8.03;;;4.33;;
12484;SDS011;6307;46.804;11.580;2022-09-14T13:31:15;6.53;;;3.50;;
12484;SDS011;6307;46.804;11.580;2022-09-14T13:33:53;4.03;;;3.10;;
12484;SDS011;6307;46.804;11.580;2022-09-14T13:36:22;4.10;;;2.90;;
12484;SDS011;6307;46.804;11.580;2022-09-14T13:38:54;13.27;;;4.27;;
12484;SDS011;6307;46.804;11.580;2022-09-14T13:41:25;9.80;;;4.23;;
12484;SDS011;6307;46.804;11.580;2022-09-14T13:43:53;7.93;;;4.10;;
12484;SDS011;6307;46.804;11.580;2022-09-14T13:46:22;4.93;;;3.13;;
12484;SDS011;6307;46.804;11.580;2022-09-14T13:48:50;6.97;;;3.40;;
12484;SDS011;6307;46.804;11.580;2022-09-14T13:51:23;8.50;;;3.83;;
12484;SDS011;6307;46.804;11.580;2022-09-14T13:53:53;6.40;;;3.50;;
12484;SDS011;6307;46.804;11.580;2022-09-14T14:01:58;7.83;;;3.47;;
12484;SDS011;6307;46.804;11.580;2022-09-14T14:04:36;6.27;;;3.43;;
12484;SDS011;6307;46.804;11.580;2022-09-14T14:07:14;3.33;;;2.93;;
12484;SDS011;6307;46.804;11.580;2022-09-14T14:09:52;5.87;;;3.10;;
12484;SDS011;6307;46.804;11.580;2022-09-14T14:12:23;6.07;;;3.20;;
12484;SDS011;6307;46.804;11.580;2022-09-14T14:15:02;7.57;;;3.27;;
12484;SDS011;6307;46.804;11.580;2022-09-14T14:17:49;6.40;;;4.00;;
12484;SDS011;6307;46.804;11.580;2022-09-14T14:25:33;7.47;;;3.87;;
12484;SDS011;6307;46.804;11.580;2022-09-14T14:30:53;7.27;;;3.63;;
12484;SDS011;6307;46.804;11.580;2022-09-14T14:33:23;3.93;;;3.33;;
12484;SDS011;6307;46.804;11.580;2022-09-14T14:35:50;6.10;;;3.90;;
12484;SDS011;6307;46.804;11.580;2022-09-14T14:38:19;4.97;;;3.53;;
12484;SDS011;6307;46.804;11.580;2022-09-14T14:40:47;10.73;;;3.57;;
12484;SDS011;6307;46.804;11.580;2022-09-14T14:43:17;5.10;;;3.30;;
12484;SDS011;6307;46.804;11.580;2022-09-14T14:45:54;7.13;;;3.00;;
12484;SDS011;6307;46.804;11.580;2022-09-14T14:48:24;6.20;;;4.40;;
12484;SDS011;6307;46.804;11.580;2022-09-14T14:50:52;5.27;;;3.80;;
12484;SDS011;6307;46.804;11.580;2022-09-14T14:53:19;5.47;;;3.70;;
12484;SDS011;6307;46.804;11.580;2022-09-14T14:55:47;9.23;;;4.00;;
12484;SDS011;6307;46.804;11.580;2022-09-14T14:58:14;8.03;;;3.90;;
12484;SDS011;6307;46.804;11.580;2022-09-14T15:00:43;10.50;;;3.83;;
12484;SDS011;6307;46.804;11.580;2022-09-14T15:03:09;7.03;;;3.83;;
12484;SDS011;6307;46.804;11.580;2022-09-14T15:05:39;5.77;;;3.23;;
12484;SDS011;6307;46.804;11.580;2022-09-14T15:08:11;4.53;;;3.23;;
12484;SDS011;6307;46.804;11.580;2022-09-14T15:10:39;5.50;;;3.60;;
12484;SDS011;6307;46.804;11.580;2022-09-14T15:13:06;4.67;;;3.13;;
12484;SDS011;6307;46.804;11.580;2022-09-14T15:15:35;5.70;;;3.10;;
12484;SDS011;6307;46.804;11.580;2022-09-14T15:18:04;6.27;;;4.00;;
12484;SDS011;6307;46.804;11.580;2022-09-14T15:20:30;6.30;;;3.43;;
12484;SDS011;6307;46.804;11.580;2022-09-14T15:22:56;4.83;;;3.20;;
12484;SDS011;6307;46.804;11.580;2022-09-14T15:25:23;7.87;;;3.73;;
12484;SDS011;6307;46.804;11.580;2022-09-14T15:27:49;7.10;;;4.00;;
12484;SDS011;6307;46.804;11.580;2022-09-14T15:30:15;6.87;;;3.10;;
12484;SDS011;6307;46.804;11.580;2022-09-14T15:32:41;4.10;;;3.40;;
12484;SDS011;6307;46.804;11.580;2022-09-14T15:35:09;5.07;;;3.00;;
12484;SDS011;6307;46.804;11.580;2022-09-14T15:37:38;5.07;;;3.20;;
12484;SDS011;6307;46.804;11.580;2022-09-14T15:40:05;8.50;;;3.57;;
12484;SDS011;6307;46.804;11.580;2022-09-14T15:42:32;7.43;;;3.50;;
12484;SDS011;6307;46.804;11.580;2022-09-14T15:44:58;8.20;;;3.50;;
12484;SDS011;6307;46.804;11.580;2022-09-14T15:47:24;11.27;;;3.70;;
12484;SDS011;6307;46.804;11.580;2022-09-14T15:49:50;11.57;;;4.27;;
12484;SDS011;6307;46.804;11.580;2022-09-14T15:52:17;4.63;;;3.60;;
12484;SDS011;6307;46.804;11.580;2022-09-14T15:54:43;8.07;;;3.70;;
12484;SDS011;6307;46.804;11.580;2022-09-14T15:57:10;7.10;;;3.37;;
12484;SDS011;6307;46.804;11.580;2022-09-14T15:59:37;7.47;;;3.73;;
12484;SDS011;6307;46.804;11.580;2022-09-14T16:02:04;6.83;;;3.30;;
12484;SDS011;6307;46.804;11.580;2022-09-14T16:04:34;8.37;;;4.13;;
12484;SDS011;6307;46.804;11.580;2022-09-14T16:07:02;7.43;;;3.67;;
12484;SDS011;6307;46.804;11.580;2022-09-14T16:09:33;4.90;;;3.43;;
12484;SDS011;6307;46.804;11.580;2022-09-14T16:12:01;7.13;;;3.63;;
12484;SDS011;6307;46.804;11.580;2022-09-14T16:14:28;10.97;;;3.20;;
12484;SDS011;6307;46.804;11.580;2022-09-14T16:16:54;5.53;;;3.60;;
12484;SDS011;6307;46.804;11.580;2022-09-14T16:19:20;5.47;;;3.30;;
12484;SDS011;6307;46.804;11.580;2022-09-14T16:21:46;3.73;;;2.90;;
12484;SDS011;6307;46.804;11.580;2022-09-14T16:24:14;4.07;;;3.07;;
12484;SDS011;6307;46.804;11.580;2022-09-14T16:26:43;10.23;;;4.43;;
12484;SDS011;6307;46.804;11.580;2022-09-14T16:29:11;5.80;;;3.10;;
12484;SDS011;6307;46.804;11.580;2022-09-14T16:31:41;5.80;;;3.17;;
12484;SDS011;6307;46.804;11.580;2022-09-14T16:34:12;4.77;;;2.80;;
12484;SDS011;6307;46.804;11.580;2022-09-14T16:36:43;9.83;;;2.93;;
12484;SDS011;6307;46.804;11.580;2022-09-14T16:39:13;7.77;;;3.00;;
12484;SDS011;6307;46.804;11.580;2022-09-14T16:41:46;8.27;;;3.73;;
12484;SDS011;6307;46.804;11.580;2022-09-14T16:44:18;6.50;;;3.27;;
12484;SDS011;6307;46.804;11.580;2022-09-14T16:46:47;5.87;;;3.57;;
12484;SDS011;6307;46.804;11.580;2022-09-14T16:49:14;3.57;;;2.70;;
12484;SDS011;6307;46.804;11.580;2022-09-14T16:51:41;4.37;;;2.80;;
12484;SDS011;6307;46.804;11.580;2022-09-14T16:54:09;9.83;;;3.40;;
12484;SDS011;6307;46.804;11.580;2022-09-14T16:56:40;5.17;;;3.30;;
12484;SDS011;6307;46.804;11.580;2022-09-14T16:59:07;4.77;;;3.13;;
12484;SDS011;6307;46.804;11.580;2022-09-14T17:01:35;7.37;;;3.50;;
12484;SDS011;6307;46.804;11.580;2022-09-14T17:04:06;10.70;;;3.60;;
12484;SDS011;6307;46.804;11.580;2022-09-14T17:06:45;7.60;;;3.53;;
12484;SDS011;6307;46.804;11.580;2022-09-14T17:09:18;6.27;;;3.73;;
12484;SDS011;6307;46.804;11.580;2022-09-14T17:11:53;6.27;;;3.60;;
12484;SDS011;6307;46.804;11.580;2022-09-14T17:14:23;8.80;;;3.73;;
12484;SDS011;6307;46.804;11.580;2022-09-14T17:16:55;9.23;;;4.60;;
12484;SDS011;6307;46.804;11.580;2022-09-14T17:19:24;7.60;;;4.80;;
12484;SDS011;6307;46.804;11.580;2022-09-14T17:21:51;6.57;;;3.53;;
12484;SDS011;6307;46.804;11.580;2022-09-14T17:24:18;8.47;;;3.53;;
12484;SDS011;6307;46.804;11.580;2022-09-14T17:26:46;6.17;;;4.17;;
12484;SDS011;6307;46.804;11.580;2022-09-14T17:29:13;5.93;;;3.93;;
12484;SDS011;6307;46.804;11.580;2022-09-14T17:31:40;5.10;;;3.53;;
12484;SDS011;6307;46.804;11.580;2022-09-14T17:34:09;4.43;;;3.30;;
12484;SDS011;6307;46.804;11.580;2022-09-14T17:36:37;5.90;;;3.60;;
12484;SDS011;6307;46.804;11.580;2022-09-14T17:39:04;4.83;;;3.50;;
12484;SDS011;6307;46.804;11.580;2022-09-14T17:41:31;6.33;;;4.87;;
12484;SDS011;6307;46.804;11.580;2022-09-14T17:43:59;8.73;;;5.20;;
12484;SDS011;6307;46.804;11.580;2022-09-14T17:46:28;11.57;;;4.83;;
12484;SDS011;6307;46.804;11.580;2022-09-14T17:48:55;9.47;;;5.40;;
12484;SDS011;6307;46.804;11.580;2022-09-14T17:51:24;9.17;;;3.90;;
12484;SDS011;6307;46.804;11.580;2022-09-14T17:53:53;5.73;;;4.27;;
12484;SDS011;6307;46.804;11.580;2022-09-14T17:56:21;10.30;;;4.20;;
12484;SDS011;6307;46.804;11.580;2022-09-14T17:58:56;10.73;;;5.00;;
12484;SDS011;6307;46.804;11.580;2022-09-14T18:01:29;5.33;;;4.50;;
12484;SDS011;6307;46.804;11.580;2022-09-14T18:03:57;6.00;;;4.23;;
12484;SDS011;6307;46.804;11.580;2022-09-14T18:06:29;9.03;;;4.73;;
12484;SDS011;6307;46.804;11.580;2022-09-14T18:09:00;6.17;;;5.53;;
12484;SDS011;6307;46.804;11.580;2022-09-14T18:11:30;10.13;;;5.33;;
12484;SDS011;6307;46.804;11.580;2022-09-14T18:13:57;6.00;;;4.33;;
12484;SDS011;6307;46.804;11.580;2022-09-14T18:16:24;7.17;;;5.23;;
12484;SDS011;6307;46.804;11.580;2022-09-14T18:18:51;10.77;;;5.73;;